createdAt,value
2023-11-24T00:00:28.014Z,71.24
2023-11-24T00:03:18.696Z,70.35
2023-11-24T00:05:48.400Z,71.43
2023-11-24T00:08:17.795Z,70.75
2023-11-24T00:10:47.367Z,70.97
2023-11-24T00:13:17.871Z,71.34
2023-11-24T00:15:48.519Z,71.37
2023-11-24T00:18:19.630Z,71.45
2023-11-24T00:20:49.497Z,71.56
2023-11-24T00:23:18.722Z,72.20
2023-11-24T00:25:48.769Z,72.65
2023-11-24T00:28:19.868Z,72.46
2023-11-24T00:30:51.154Z,73.54
2023-11-24T00:33:22.008Z,75.89
2023-11-24T00:35:51.781Z,76.94
2023-11-24T00:38:20.934Z,77.21
2023-11-24T00:40:51.279Z,77.38
2023-11-24T00:43:21.507Z,77.30
2023-11-24T00:45:51.200Z,76.69
2023-11-24T00:48:25.542Z,77.19
2023-11-24T00:50:55.293Z,78.36
2023-11-24T00:53:24.475Z,78.03
2023-11-24T00:55:54.044Z,77.66
2023-11-24T00:58:24.037Z,79.69
2023-11-24T01:00:55.043Z,80.31
2023-11-24T01:03:25.934Z,80.07
2023-11-24T01:05:56.104Z,79.71
2023-11-24T01:08:26.365Z,79.82
2023-11-24T01:10:57.826Z,80.69
2023-11-24T01:13:27.876Z,81.56
2023-11-24T01:15:57.180Z,82.17
2023-11-24T01:18:29.100Z,82.54
2023-11-24T01:20:59.722Z,81.94
2023-11-24T01:23:29.275Z,82.25
2023-11-24T01:25:58.825Z,82.27
2023-11-24T01:28:28.940Z,82.42
2023-11-24T01:30:58.762Z,82.21
2023-11-24T01:33:31.564Z,82.47
2023-11-24T01:36:02.202Z,82.52
2023-11-24T01:38:31.369Z,82.86
2023-11-24T01:41:00.820Z,82.02
2023-11-24T01:43:30.085Z,82.90
2023-11-24T01:45:59.670Z,83.40
2023-11-24T01:48:31.119Z,82.46
2023-11-24T01:51:01.159Z,82.33
2023-11-24T01:53:31.131Z,83.08
2023-11-24T01:56:00.403Z,84.86
2023-11-24T01:58:31.239Z,85.02
2023-11-24T02:01:01.341Z,84.29
2023-11-24T02:03:32.128Z,84.48
2023-11-24T02:06:02.081Z,85.37
2023-11-24T02:08:31.485Z,85.19
2023-11-24T02:11:01.050Z,85.15
2023-11-24T02:13:30.347Z,84.47
2023-11-24T02:15:59.965Z,84.53
2023-11-24T02:18:30.717Z,85.07
2023-11-24T02:21:02.093Z,85.09
2023-11-24T02:23:33.246Z,84.68
2023-11-24T02:26:02.907Z,85.45
2023-11-24T02:28:32.157Z,85.62
2023-11-24T02:31:04.686Z,86.07
2023-11-24T02:33:35.138Z,86.34
2023-11-24T02:36:09.980Z,86.26
2023-11-24T02:38:40.616Z,86.55
2023-11-24T02:41:10.476Z,86.36
2023-11-24T02:43:39.728Z,87.65
2023-11-24T02:46:12.480Z,87.01
2023-11-24T02:48:42.626Z,87.28
2023-11-24T02:51:13.065Z,86.80
2023-11-24T02:53:45.229Z,86.23
2023-11-24T02:56:15.142Z,86.34
2023-11-24T02:58:44.447Z,85.99
2023-11-24T03:01:13.984Z,86.52
2023-11-24T03:03:43.402Z,87.69
2023-11-24T03:06:14.380Z,87.08
2023-11-24T03:08:45.585Z,87.30
2023-11-24T03:11:16.254Z,87.81
2023-11-24T03:13:45.524Z,87.95
2023-11-24T03:16:15.033Z,88.01
2023-11-24T03:18:44.924Z,88.25
2023-11-24T03:21:15.498Z,88.73
2023-11-24T03:23:46.364Z,87.85
2023-11-24T03:26:16.114Z,87.81
2023-11-24T03:28:45.341Z,88.21
2023-11-24T03:31:15.930Z,87.97
2023-11-24T03:33:45.282Z,88.21
2023-11-24T03:36:14.787Z,87.98
2023-11-24T03:38:45.444Z,87.65
2023-11-24T03:41:14.992Z,87.49
2023-11-24T03:43:44.199Z,87.81
2023-11-24T03:46:14.877Z,87.46
2023-11-24T03:48:44.189Z,87.08
2023-11-24T03:51:13.923Z,87.43
2023-11-24T03:53:43.210Z,87.44
2023-11-24T03:56:16.939Z,87.64
2023-11-24T03:58:46.330Z,87.06
2023-11-24T04:01:16.580Z,86.74
2023-11-24T04:03:47.948Z,86.65
2023-11-24T04:06:17.989Z,86.06
2023-11-24T04:08:47.256Z,86.30
2023-11-24T04:11:18.085Z,86.41
2023-11-24T04:13:47.361Z,86.89
2023-11-24T04:16:19.040Z,86.71
2023-11-24T04:18:48.995Z,86.42
2023-11-24T04:21:18.424Z,86.84
2023-11-24T04:23:46.565Z,87.17
2023-11-24T04:26:17.877Z,86.59
2023-11-24T04:28:47.085Z,86.85
2023-11-24T04:31:16.596Z,87.18
2023-11-24T04:33:46.030Z,87.09
2023-11-24T04:36:16.256Z,86.58
2023-11-24T04:38:46.786Z,86.73
2023-11-24T04:41:17.880Z,86.54
2023-11-24T04:43:47.142Z,86.64
2023-11-24T04:46:16.771Z,86.62
2023-11-24T04:48:46.021Z,86.23
2023-11-24T04:51:15.619Z,86.44
2023-11-24T04:53:44.747Z,86.13
2023-11-24T04:56:14.399Z,86.35
2023-11-24T04:58:45.093Z,86.06
2023-11-24T05:01:15.424Z,86.08
2023-11-24T05:03:45.361Z,86.40
2023-11-24T05:06:14.916Z,85.81
2023-11-24T05:08:45.901Z,85.63
2023-11-24T05:11:18.214Z,86.06
2023-11-24T05:13:49.335Z,85.25
2023-11-24T05:16:19.069Z,85.20
2023-11-24T05:18:50.527Z,84.70
2023-11-24T05:21:20.208Z,84.71
2023-11-24T05:23:49.524Z,84.39
2023-11-24T05:26:19.033Z,84.18
2023-11-24T05:28:49.711Z,83.92
2023-11-24T05:31:19.268Z,83.20
2023-11-24T05:33:49.343Z,83.25
2023-11-24T05:36:20.139Z,83.09
2023-11-24T05:38:49.377Z,82.57
2023-11-24T05:41:19.133Z,82.79
2023-11-24T05:43:50.208Z,82.30
2023-11-24T05:46:19.985Z,81.53
2023-11-24T05:48:49.418Z,81.87
2023-11-24T05:51:19.066Z,81.00
2023-11-24T05:53:48.204Z,80.81
2023-11-24T05:56:17.665Z,81.04
2023-11-24T05:58:48.335Z,80.31
2023-11-24T06:01:17.957Z,80.57
2023-11-24T06:03:47.158Z,80.59
2023-11-24T06:06:16.872Z,80.77
2023-11-24T06:08:46.144Z,80.99
2023-11-24T06:11:19.184Z,80.83
2023-11-24T06:13:49.913Z,81.07
2023-11-24T06:16:19.521Z,81.33
2023-11-24T06:18:48.719Z,81.52
2023-11-24T06:21:18.319Z,81.83
2023-11-24T06:23:52.079Z,82.23
2023-11-24T06:26:21.691Z,82.61
2023-11-24T06:28:52.353Z,82.73
2023-11-24T06:31:21.972Z,82.98
2023-11-24T06:33:51.244Z,83.38
2023-11-24T06:36:20.875Z,84.00
2023-11-24T06:38:50.071Z,84.58
2023-11-24T06:41:19.723Z,84.51
2023-11-24T06:43:49.105Z,85.16
2023-11-24T06:46:20.111Z,84.43
2023-11-24T06:48:54.026Z,85.63
2023-11-24T06:51:23.892Z,86.37
2023-11-24T06:53:53.140Z,86.07
2023-11-24T06:56:23.896Z,86.39
2023-11-24T06:58:55.663Z,86.03
2023-11-24T07:01:34.303Z,85.38
2023-11-24T07:04:04.483Z,85.76
2023-11-24T07:06:35.542Z,85.44
2023-11-24T07:09:04.963Z,85.50
2023-11-24T07:11:34.463Z,85.49
2023-11-24T07:14:03.791Z,86.12
2023-11-24T07:16:34.808Z,86.35
2023-11-24T07:19:04.539Z,86.30
2023-11-24T07:21:36.204Z,86.37
2023-11-24T07:24:06.279Z,86.95
2023-11-24T07:26:35.654Z,86.82
2023-11-24T07:29:04.857Z,87.82
2023-11-24T07:31:35.875Z,87.26
2023-11-24T07:34:05.546Z,87.09
2023-11-24T07:36:35.158Z,87.32
2023-11-24T07:39:04.867Z,87.46
2023-11-24T07:41:34.371Z,88.44
2023-11-24T07:44:04.714Z,87.69
2023-11-24T07:46:36.520Z,87.87
2023-11-24T07:49:05.980Z,87.90
2023-11-24T07:51:35.401Z,87.27
2023-11-24T07:54:05.735Z,87.87
2023-11-24T07:56:37.097Z,87.81
2023-11-24T07:59:06.520Z,87.45
2023-11-24T08:01:37.459Z,88.21
2023-11-24T08:04:07.149Z,88.62
2023-11-24T08:06:36.866Z,87.45
2023-11-24T08:09:09.390Z,87.78
2023-11-24T08:11:38.964Z,88.20
2023-11-24T08:14:08.155Z,87.62
2023-11-24T08:16:39.369Z,88.21
2023-11-24T08:19:09.476Z,88.07
2023-11-24T08:21:38.864Z,88.53
2023-11-24T08:24:10.502Z,89.01
2023-11-24T08:26:40.039Z,89.21
2023-11-24T08:29:09.491Z,90.22
2023-11-24T08:31:41.601Z,90.34
2023-11-24T08:34:10.998Z,89.65
2023-11-24T08:36:41.825Z,89.45
2023-11-24T08:39:14.402Z,89.68
2023-11-24T08:41:49.464Z,89.66
2023-11-24T08:44:25.351Z,89.48
2023-11-24T08:46:56.395Z,89.78
2023-11-24T08:49:25.680Z,89.66
2023-11-24T08:51:55.175Z,89.12
2023-11-24T08:54:24.592Z,89.40
2023-11-24T08:56:54.086Z,89.76
2023-11-24T08:59:24.399Z,89.53
2023-11-24T09:01:56.456Z,89.35
2023-11-24T09:04:29.119Z,88.62
2023-11-24T09:06:59.019Z,88.71
2023-11-24T09:09:29.874Z,89.55
2023-11-24T09:11:59.408Z,89.19
2023-11-24T09:14:28.634Z,89.53
2023-11-24T09:16:59.737Z,89.18
2023-11-24T09:19:28.984Z,89.78
2023-11-24T09:22:01.270Z,89.99
2023-11-24T09:24:30.569Z,90.29
2023-11-24T09:27:00.091Z,89.79
2023-11-24T09:29:29.356Z,89.74
2023-11-24T09:32:00.378Z,89.50
2023-11-24T09:34:30.950Z,88.83
2023-11-24T09:37:02.570Z,89.04
2023-11-24T09:39:31.924Z,88.86
2023-11-24T09:42:04.143Z,90.27
2023-11-24T09:44:33.846Z,90.24
2023-11-24T09:47:06.129Z,90.33
2023-11-24T09:49:35.788Z,90.22
2023-11-24T09:52:05.804Z,90.47
2023-11-24T09:54:35.032Z,90.22
2023-11-24T09:57:04.720Z,90.26
2023-11-24T09:59:33.936Z,90.51
2023-11-24T10:02:06.929Z,90.29
2023-11-24T10:04:36.279Z,90.43
2023-11-24T10:07:13.665Z,89.80
2023-11-24T10:09:42.906Z,90.40
2023-11-24T10:12:13.697Z,89.58
2023-11-24T10:14:44.759Z,89.70
2023-11-24T10:17:15.895Z,89.59
2023-11-24T10:19:45.168Z,90.21
2023-11-24T10:22:14.732Z,89.58
2023-11-24T10:24:44.283Z,89.27
2023-11-24T10:27:23.119Z,88.98
2023-11-24T10:29:53.015Z,88.89
2023-11-24T10:32:24.097Z,88.55
2023-11-24T10:34:53.671Z,87.80
2023-11-24T10:37:26.167Z,86.90
2023-11-24T10:39:59.954Z,86.25
2023-11-24T10:42:35.029Z,85.58
2023-11-24T10:45:08.614Z,84.36
2023-11-24T10:47:47.280Z,81.25
2023-11-24T10:50:18.791Z,78.52
2023-11-24T10:53:00.108Z,72.30
2023-11-24T10:55:31.683Z,74.23
2023-11-24T10:58:02.994Z,72.29
2023-11-24T11:00:33.179Z,74.84
2023-11-24T11:03:04.460Z,75.69
2023-11-24T11:05:45.777Z,76.34
2023-11-24T11:08:21.986Z,77.13
2023-11-24T11:11:26.673Z,78.64
2023-11-24T11:13:58.960Z,78.24
2023-11-24T11:16:28.577Z,78.04
2023-11-24T11:19:03.687Z,77.60
2023-11-24T11:21:41.336Z,76.33
2023-11-24T11:24:26.159Z,75.32
2023-11-24T11:26:55.389Z,75.53
2023-11-24T11:29:25.611Z,75.74
2023-11-24T11:31:55.326Z,75.82
2023-11-24T11:34:31.071Z,75.32
2023-11-24T11:37:12.843Z,74.74
2023-11-24T11:39:58.999Z,74.60
2023-11-24T11:42:52.385Z,74.16
2023-11-24T11:45:31.305Z,74.62
2023-11-24T11:48:04.213Z,72.36
2023-11-24T11:50:38.032Z,73.39
2023-11-24T11:53:07.526Z,73.54
2023-11-24T11:55:37.237Z,72.70
2023-11-24T11:58:07.577Z,72.08
2023-11-24T12:00:41.405Z,71.32
2023-11-24T12:03:11.450Z,72.13
2023-11-24T12:05:43.669Z,72.32
2023-11-24T12:08:13.039Z,72.06
2023-11-24T12:10:43.729Z,71.29
2023-11-24T12:13:13.979Z,71.44
2023-11-24T12:15:44.527Z,70.63
2023-11-24T12:18:17.144Z,70.80
2023-11-24T12:20:49.765Z,68.97
2023-11-24T12:23:20.944Z,69.06
2023-11-24T12:25:50.626Z,68.47
2023-11-24T12:28:20.341Z,68.66
2023-11-24T12:30:50.172Z,69.44
2023-11-24T12:33:20.964Z,68.01
2023-11-24T12:35:53.302Z,69.36
2023-11-24T12:38:23.706Z,69.90
2023-11-24T12:40:55.389Z,68.38
2023-11-24T12:43:24.748Z,68.77
2023-11-24T12:45:54.285Z,68.49
2023-11-24T12:48:24.370Z,68.67
2023-11-24T12:50:58.422Z,70.06
2023-11-24T12:53:27.705Z,68.06
2023-11-24T12:55:57.181Z,68.95
2023-11-24T12:58:26.644Z,68.85
2023-11-24T13:00:58.316Z,68.03
2023-11-24T13:03:27.888Z,67.73
2023-11-24T13:05:58.812Z,67.23
2023-11-24T13:08:28.014Z,67.63
2023-11-24T13:10:58.573Z,68.54
2023-11-24T13:13:27.624Z,68.19
2023-11-24T13:15:58.263Z,67.37
2023-11-24T13:18:27.523Z,68.43
2023-11-24T13:20:58.501Z,67.91
2023-11-24T13:23:27.746Z,67.36
2023-11-24T13:25:57.699Z,67.97
2023-11-24T13:28:27.024Z,68.23
2023-11-24T13:30:56.571Z,67.57
2023-11-24T13:33:25.747Z,68.00
2023-11-24T13:35:55.313Z,67.45
2023-11-24T13:38:27.527Z,67.58
2023-11-24T13:40:57.137Z,68.61
2023-11-24T13:43:26.432Z,67.56
2023-11-24T13:46:04.525Z,65.78
2023-11-24T13:48:34.127Z,66.23
2023-11-24T13:51:05.484Z,66.15
2023-11-24T13:53:37.234Z,67.34
2023-11-24T13:56:06.948Z,67.39
2023-11-24T13:58:36.469Z,68.67
2023-11-24T14:01:07.437Z,68.74
2023-11-24T14:03:37.296Z,69.04
2023-11-24T14:06:07.519Z,69.02
2023-11-24T14:08:40.392Z,69.21
2023-11-24T14:11:10.164Z,69.46
2023-11-24T14:13:40.587Z,69.52
2023-11-24T14:16:11.591Z,69.36
2023-11-24T14:18:42.732Z,69.93
2023-11-24T14:21:11.954Z,69.48
2023-11-24T14:23:42.501Z,69.93
2023-11-24T14:26:11.551Z,70.06
2023-11-24T14:28:42.551Z,70.67
2023-11-24T14:31:13.604Z,70.73
2023-11-24T14:33:44.901Z,70.40
2023-11-24T14:36:15.610Z,71.04
2023-11-24T14:38:49.354Z,70.77
2023-11-24T14:41:18.862Z,70.91
2023-11-24T14:43:49.696Z,71.34
2023-11-24T14:46:22.464Z,71.46
2023-11-24T14:48:52.452Z,71.51
2023-11-24T14:51:22.311Z,71.72
2023-11-24T14:53:52.036Z,71.56
2023-11-24T14:56:21.397Z,72.27
2023-11-24T14:58:51.958Z,72.71
2023-11-24T15:01:24.081Z,72.57
2023-11-24T15:03:54.721Z,73.02
2023-11-24T15:06:26.942Z,73.24
2023-11-24T15:09:01.533Z,73.50
2023-11-24T15:11:44.713Z,73.46
2023-11-24T15:14:15.859Z,74.25
2023-11-24T15:16:58.852Z,74.28
2023-11-24T15:19:29.190Z,74.37
2023-11-24T15:22:04.137Z,74.78
2023-11-24T15:24:34.595Z,74.96
2023-11-24T15:27:05.549Z,75.04
2023-11-24T15:29:37.265Z,75.12
2023-11-24T15:32:08.982Z,75.48
2023-11-24T15:34:38.792Z,75.79
2023-11-24T15:37:08.219Z,76.61
2023-11-24T15:39:42.468Z,75.90
2023-11-24T15:42:16.873Z,75.78
2023-11-24T15:44:47.936Z,77.50
2023-11-24T15:47:19.677Z,77.94
2023-11-24T15:49:51.287Z,77.13
2023-11-24T15:52:23.056Z,76.87
2023-11-24T15:54:53.062Z,78.58
2023-11-24T15:57:24.255Z,79.00
2023-11-24T15:59:57.859Z,79.88
2023-11-24T16:02:33.190Z,80.66
2023-11-24T16:05:05.869Z,79.44
2023-11-24T16:07:35.864Z,80.50
2023-11-24T16:10:16.738Z,81.82
2023-11-24T16:12:49.802Z,81.29
2023-11-24T16:15:19.786Z,82.05
2023-11-24T16:17:51.835Z,80.97
2023-11-24T16:20:21.655Z,82.34
2023-11-24T16:22:50.811Z,83.30
2023-11-24T16:25:20.340Z,82.80
2023-11-24T16:27:49.675Z,83.55
2023-11-24T16:30:20.708Z,83.07
2023-11-24T16:32:51.474Z,83.42
2023-11-24T16:35:21.078Z,83.77
2023-11-24T16:37:50.553Z,83.39
2023-11-24T16:40:20.537Z,82.33
2023-11-24T16:42:49.950Z,83.01
2023-11-24T16:45:19.718Z,82.13
2023-11-24T16:47:50.490Z,82.91
2023-11-24T16:50:19.850Z,82.90
2023-11-24T16:52:51.684Z,82.99
2023-11-24T16:55:21.068Z,82.76
2023-11-24T16:57:50.742Z,83.28
2023-11-24T17:00:20.860Z,83.90
2023-11-24T17:02:52.623Z,85.27
2023-11-24T17:05:22.116Z,83.67
2023-11-24T17:07:51.773Z,84.96
2023-11-24T17:10:21.116Z,85.62
2023-11-24T17:12:51.370Z,84.92
2023-11-24T17:15:20.720Z,85.66
2023-11-24T17:17:52.559Z,85.07
2023-11-24T17:20:22.097Z,84.73
2023-11-24T17:22:51.713Z,85.32
2023-11-24T17:25:32.058Z,85.57
2023-11-24T17:28:06.713Z,84.75
2023-11-24T17:30:36.078Z,84.59
2023-11-24T17:33:07.569Z,85.29
2023-11-24T17:35:36.961Z,83.90
2023-11-24T17:38:06.589Z,85.46
2023-11-24T17:40:35.952Z,85.16
2023-11-24T17:43:05.858Z,85.46
2023-11-24T17:45:35.540Z,84.96
2023-11-24T17:48:09.645Z,84.32
2023-11-24T17:50:39.658Z,85.08
2023-11-24T17:53:10.201Z,85.27
2023-11-24T17:55:39.324Z,84.51
2023-11-24T17:58:08.844Z,84.13
2023-11-24T18:00:41.453Z,84.00
2023-11-24T18:03:12.861Z,83.80
2023-11-24T18:05:43.188Z,83.07
2023-11-24T18:08:12.890Z,83.42
2023-11-24T18:10:42.410Z,83.68
2023-11-24T18:13:12.101Z,83.21
2023-11-24T18:15:41.532Z,83.26
2023-11-24T18:18:12.926Z,83.05
2023-11-24T18:20:44.417Z,82.99
2023-11-24T18:23:14.747Z,83.14
2023-11-24T18:25:44.467Z,83.01
2023-11-24T18:28:15.769Z,83.07
2023-11-24T18:30:45.519Z,83.09
2023-11-24T18:33:16.708Z,82.65
2023-11-24T18:35:46.108Z,82.86
2023-11-24T18:38:15.772Z,82.73
2023-11-24T18:40:45.165Z,82.85
2023-11-24T18:43:23.123Z,82.68
2023-11-24T18:46:02.304Z,83.22
2023-11-24T18:48:33.561Z,82.67
2023-11-24T18:51:03.393Z,82.74
2023-11-24T18:53:33.369Z,83.01
2023-11-24T18:56:02.934Z,83.22
2023-11-24T18:58:33.277Z,83.13
2023-11-24T19:01:02.720Z,83.13
2023-11-24T19:03:34.335Z,83.16
2023-11-24T19:06:06.360Z,83.26
2023-11-24T19:08:36.293Z,83.34
2023-11-24T19:11:07.530Z,83.21
2023-11-24T19:13:38.927Z,83.43
2023-11-24T19:16:08.908Z,83.68
2023-11-24T19:18:40.898Z,83.70
2023-11-24T19:21:11.657Z,83.55
2023-11-24T19:23:41.437Z,83.32
2023-11-24T19:26:13.407Z,83.57
2023-11-24T19:29:02.551Z,83.31
2023-11-24T19:31:35.544Z,83.33
2023-11-24T19:34:09.220Z,83.33
2023-11-24T19:36:39.165Z,83.01
2023-11-24T19:39:11.360Z,83.55
2023-11-24T19:41:40.779Z,83.58
2023-11-24T19:44:11.103Z,83.01
2023-11-24T19:46:40.885Z,83.20
2023-11-24T19:49:12.763Z,83.29
2023-11-24T19:51:42.247Z,82.95
2023-11-24T19:54:11.881Z,83.10
2023-11-24T19:56:41.238Z,83.20
2023-11-24T19:59:11.139Z,83.36
2023-11-24T20:01:40.515Z,82.81
2023-11-24T20:04:11.654Z,83.27
2023-11-24T20:06:42.284Z,83.09
2023-11-24T20:09:15.323Z,83.44
2023-11-24T20:11:44.731Z,83.34
2023-11-24T20:14:14.709Z,83.48
2023-11-24T20:16:48.023Z,83.05
2023-11-24T20:19:19.484Z,83.40
2023-11-24T20:21:48.848Z,83.15
2023-11-24T20:24:18.718Z,83.31
2023-11-24T20:26:49.499Z,82.90
2023-11-24T20:29:22.103Z,83.18
2023-11-24T20:31:58.808Z,82.95
2023-11-24T20:34:31.517Z,83.21
2023-11-24T20:37:01.956Z,83.45
2023-11-24T20:39:31.552Z,83.16
2023-11-24T20:42:01.736Z,83.68
2023-11-24T20:44:34.134Z,83.24
2023-11-24T20:47:04.007Z,83.37
2023-11-24T20:49:37.650Z,83.12
2023-11-24T20:52:08.103Z,83.23
2023-11-24T20:54:38.779Z,83.63
2023-11-24T20:57:08.110Z,83.66
2023-11-24T20:59:38.854Z,83.69
2023-11-24T21:02:08.378Z,83.83
2023-11-24T21:04:39.844Z,83.36
2023-11-24T21:07:09.395Z,83.68
2023-11-24T21:09:40.890Z,83.44
2023-11-24T21:12:10.976Z,83.53
2023-11-24T21:14:40.389Z,83.20
2023-11-24T21:17:09.683Z,83.63
2023-11-24T21:19:43.807Z,83.73
2023-11-24T21:22:13.154Z,83.51
2023-11-24T21:24:45.203Z,83.01
2023-11-24T21:27:15.680Z,83.34
2023-11-24T21:29:46.508Z,83.30
2023-11-24T21:32:15.940Z,83.33
2023-11-24T21:34:47.776Z,83.11
2023-11-24T21:37:18.117Z,83.21
2023-11-24T21:39:49.195Z,83.24
2023-11-24T21:42:19.377Z,82.94
2023-11-24T21:44:52.480Z,83.10
2023-11-24T21:47:24.079Z,83.42
2023-11-24T21:49:55.513Z,83.67
2023-11-24T21:52:27.649Z,83.74
2023-11-24T21:54:57.658Z,83.62
2023-11-24T21:57:28.423Z,83.32
2023-11-24T21:59:59.245Z,83.37
2023-11-24T22:02:30.302Z,83.55
2023-11-24T22:05:02.681Z,83.32
2023-11-24T22:07:34.764Z,83.49
2023-11-24T22:10:06.574Z,83.57
2023-11-24T22:12:37.635Z,83.51
2023-11-24T22:15:09.671Z,83.66
2023-11-24T22:17:39.395Z,83.88
2023-11-24T22:20:12.546Z,83.51
2023-11-24T22:22:42.374Z,83.53
2023-11-24T22:25:12.934Z,83.33
2023-11-24T22:27:42.315Z,83.63
2023-11-24T22:30:13.737Z,83.56
2023-11-24T22:32:43.123Z,83.01
2023-11-24T22:35:14.206Z,83.25
2023-11-24T22:37:43.568Z,83.64
2023-11-24T22:40:14.373Z,83.25
2023-11-24T22:42:44.149Z,83.62
2023-11-24T22:45:13.823Z,83.63
2023-11-24T22:47:44.620Z,83.41
2023-11-24T22:50:17.834Z,83.19
2023-11-24T22:52:47.936Z,83.50
2023-11-24T22:55:17.475Z,83.45
2023-11-24T22:57:47.065Z,83.74
2023-11-24T23:00:35.051Z,83.71
2023-11-24T23:03:04.864Z,83.41
2023-11-24T23:05:36.481Z,84.04
2023-11-24T23:08:05.796Z,83.80
2023-11-24T23:10:35.184Z,83.92
2023-11-24T23:13:04.781Z,83.68
2023-11-24T23:15:34.766Z,83.67
2023-11-24T23:18:05.547Z,83.22
2023-11-24T23:20:36.631Z,83.32
2023-11-24T23:23:06.112Z,83.09
2023-11-24T23:25:35.534Z,83.24
2023-11-24T23:28:06.797Z,82.62
2023-11-24T23:30:36.953Z,82.83
2023-11-24T23:33:13.371Z,83.45
2023-11-24T23:35:49.242Z,83.27
2023-11-24T23:38:18.540Z,82.74
2023-11-24T23:40:48.874Z,83.03
2023-11-24T23:43:19.366Z,82.74
2023-11-24T23:45:48.898Z,83.00
2023-11-24T23:48:18.073Z,83.48
2023-11-24T23:50:49.365Z,83.24
2023-11-24T23:53:22.693Z,83.13
2023-11-24T23:55:52.383Z,84.09
2023-11-24T23:58:22.534Z,84.82
